Cristiano Borges

Chief Scout - Ceará
13 Feb 2028
Sunday
Process

Personality

Adaptability (12) Ambition (15) Controversy (1) Loyalty (6) Pressure (11) Professionalism (4) Sportsmanship (1) Temperament (17)

Profile

Coaching Style Democratic
License Continental Pro
Determination 12
Man Management 13
Motivating 11
Discipline 6
Job Satisfaction
100%
Fatigue
0%
Role Chief Scout
Wage 94.3K p/w
Contract 14.03.2030

Performance

Behaviour Good
Training Effectiveness
38%
Player Development
20%
Injury Prevention
60%
Tactical Implementation
25%

Recent Events

Assessed a player now
Attended a recruitment meeting now
Recommended a transfer target now
Recommended a transfer target now
Recommended a transfer target now
Attended a recruitment meeting now
Recommended a transfer target 7d ago
Attended a recruitment meeting 7d ago

Currently Monitoring

261
Player Club Status Ability Confidence Watched Last Observed Latest Vote
Salvador Blopá Sporting CP Active 114 / 123 40% 5 09.02.2028 -
Josh Acheampong Everton Active 143 / 154 40% 2 09.02.2028 -
Chris Rigg Sunderland Active 131 / 140 40% 2 09.02.2028 -
Bernardo Lima Porto Active 110 / 109 40% 12 08.02.2028 -
Alani Maritimo Active 118 / 115 40% 2 08.02.2028 -
Honest Ahanor Atalanta Active 143 / 138 40% 3 08.02.2028 -
Giovanni Leoni Lincoln City Active 144 / 139 40% 2 07.02.2028 -
Seydou Fofana Pacos de Ferreira Active 101 / 107 40% 2 07.02.2028 -
Victor Hernandez Santa Fe Active 125 / 131 40% 3 09.01.2028 -
Charlie Gray Fleetwood Town Active 105 / 100 40% 2 09.01.2028 -
Ayden Heaven Portsmouth Active 142 / 158 40% 1 08.01.2028 -
Finn Jeltsch VfB Stuttgart Active 132 / 146 40% 6 07.01.2028 -
Riquelme Thompson-Jones Accrington Stanley Active 108 / 124 40% 1 07.01.2028 -
Matias Siltanen Malmo FF Active 133 / 120 40% 4 06.01.2028 -
Dmitry Pestryakov Krasnodar Active 121 / 123 40% 1 06.01.2028 -
Nahuel Leivas Montevideo City Torque Active 108 / 109 40% 1 06.01.2028 -
Pedro Soma San Diego Football Club Active 102 / 109 40% 2 05.01.2028 -
Eduardo Felicíssimo Sporting CP Active 130 / 124 40% 1 04.01.2028 -
Nathan De Cat SC Freiburg Active 125 / 136 40% 1 03.01.2028 -
Emmanuel Ndubueze Shooting Stars Active 89 / 88 40% 3 29.11.2027 -
Olívio Tomé Benfica Active 117 / 128 40% 1 29.11.2027 -
João Abreu Porto Active 92 / 101 40% 1 29.11.2027 -
Sebastián Ramírez Aguilas Doradas Active 108 / 108 40% 2 27.11.2027 -
Luca Williams-Barnett Walsall Active 128 / 124 40% 1 27.11.2027 -
Gabriel Mec Feirense Active 128 / 140 40% 1 27.11.2027 -
Chimobi Igwilo Rangers International Active 92 / 86 40% 2 26.11.2027 -
Mateo Silvetti Seattle Sounders Active 131 / 129 40% 4 26.11.2027 -
Nupe Godstime Bayelsa United Active 87 / 99 40% 2 26.11.2027 -
Flávio Gonçalves Sporting CP Active 135 / 129 40% 3 25.11.2027 -
Lucas Camejo River Plate Active 92 / 86 40% 1 25.11.2027 -
Martim Cunha Porto Active 104 / 124 40% 5 24.11.2027 -
Vinícius Lira São Paulo Active 115 / 117 40% 4 24.11.2027 -
Kauã Elias Shakhtar Active 146 / 147 40% 2 24.11.2027 -
Tiago Freitas Benfica Active 124 / 132 40% 10 21.11.2027 -
Bautista Carboni Defensores Unidos Active 107 / 114 40% 2 21.11.2027 -
Dylan Cabral Arsenal Active 104 / 112 40% 3 18.11.2027 -
Archie Gray Southampton Active 157 / 163 40% 1 18.11.2027 Needs More Info
Mateo Peralta Danubio Active 113 / 123 40% 1 18.11.2027 -
Jeremías Merlo Gimnasia La Plata Active 122 / 126 40% 3 12.11.2027 -
Maren Kefas Plateau United Active 89 / 98 40% 2 12.11.2027 -
Hassan Beja AFC Leopards Active 79 / 88 40% 4 11.11.2027 -
Gonçalo Moreira Benfica Active 130 / 136 40% 3 11.11.2027 -
Valentino Acuña Newell's Old Boys Active 114 / 117 40% 2 09.11.2027 -
Joseph Abah Remo Stars Active 77 / 100 40% 2 09.11.2027 -
Colin Guske Orlando City Active 98 / 96 40% 1 09.11.2027 -
Idris Ajiya Nasarawa United Active 85 / 88 40% 3 08.11.2027 -
Francisco Triver River Plate Active 91 / 91 40% 3 08.11.2027 -
Gianluca Prestianni Benfica Active 135 / 148 40% 3 06.11.2027 -
Nicolás Barros Schelotto Gimnasia La Plata Active 118 / 125 40% 2 06.11.2027 -
Toni Tamarit Alverca Active 127 / 118 40% 2 04.11.2027 -
Daniel Banjaqui Benfica Active 111 / 124 40% 2 04.11.2027 -
Pedro Baltika Active 133 / 138 40% 1 04.11.2027 -
Abdulrahman Hamisu Niger Tornadoes Active 93 / 87 40% 2 02.11.2027 -
Alex Amaefula Kun Khalifat Active 73 / 89 40% 2 02.11.2027 -
Mustapha Umar Kano Pillars Active 89 / 96 40% 3 01.11.2027 -
Francisco Marchant Colo-Colo Active 94 / 97 40% 2 01.11.2027 -
André Miranda Porto Active 106 / 124 40% 2 29.10.2027 -
Kabiru Abdullahi Barau Active 86 / 95 40% 1 27.10.2027 -
Giovanni Baroni Talleres Active 103 / 126 40% 1 27.10.2027 -
Alex Verón Vélez Active 113 / 127 40% 3 26.10.2027 -
Agustín De la Cuesta Racing Active 116 / 123 40% 3 25.10.2027 -
Ben Gannon Doak Charlton Athletic Active 141 / 153 40% 1 24.10.2027 -
Luka Andrade Montevideo City Torque Active 106 / 104 40% 2 23.10.2027 -
Tiago Pucciarelli IF Elfsborg Active 101 / 104 40% 1 23.10.2027 -
Léo Llaneros Active 77 / 88 40% 1 23.10.2027 -
Rafael Moreno Atletico Venezuela Active 106 / 114 40% 3 21.10.2027 -
Kaique Kenji Fortaleza Active 120 / 118 40% 1 21.10.2027 -
Musa Malik Ikorodu City Active 80 / 86 40% 1 21.10.2027 -
Abubakar Garba Nasarawa United Active 92 / 89 40% 2 20.10.2027 -
Matías Arias Vélez Active 106 / 114 40% 2 20.10.2027 -
Joel Orlando Almagro Active 116 / 119 40% 1 19.10.2027 -
Kevin Filling AIK Active 105 / 106 40% 1 19.10.2027 -
Joel Ezra Enyimba Active 102 / 91 40% 4 17.10.2027 -
Adrian Skogmar Malmo FF Active 121 / 112 40% 3 17.10.2027 -
Ruben Ramos LA Galaxy Active 94 / 106 40% 1 16.10.2027 -
David Eke Enyimba Active 92 / 99 40% 1 11.10.2027 -
Diego Vargas Universidad de Concepcion Active 98 / 102 40% 2 16.09.2027 -
Nikolay Sotnikov Arsenal Dzerzhinsk Active 83 / 82 40% 1 16.09.2027 -
Esteban de Lima Tacuarembo Active 94 / 97 40% 1 16.09.2027 -
David Damboama El-Kanemi Warriors Active 83 / 88 40% 1 15.09.2027 -
Souza Tottenham Active 123 / 140 40% 2 14.09.2027 -
Matías Canedo Rampla Juniors Active 84 / 89 40% 1 11.09.2027 -
Mpho Khethang FC Diarra Active 79 / 87 40% 2 10.09.2027 -
Chibueze Oputa Rangers International Active 91 / 83 40% 1 10.09.2027 -
Mbekezeli Mbokazi Chicago Fire Active 131 / 135 40% 3 09.09.2027 -
Kenan Busuladžić Malmo FF Active 105 / 114 40% 1 09.09.2027 -
Julián Bazán New York Red Bulls Active 110 / 117 40% 1 08.09.2027 -
Onyeuche Ujunwa Ikorodu City Active 90 / 97 40% 1 08.09.2027 -
Kevin Pinto Benfica Active 101 / 98 40% 9 05.07.2027 -
Kazunari Kita Real Sociedad Active 101 / 107 40% 5 06.06.2027 -
Sascha Britschgi AC Milan Active 121 / 137 40% 4 06.06.2027 -
Kaio Jorge Mainz 05 Active 138 / 140 68% 1 01.06.2027 Approve
Zane Albarus Shrewsbury Town Active 87 / 92 40% 5 31.05.2027 -
Miguel Figueiredo Benfica Active 110 / 129 40% 6 31.05.2027 -
Jan Bürger Northampton Town Active 104 / 116 40% 3 29.05.2027 -
Ollie Scarles West Ham United Active 138 / 126 40% 2 29.05.2027 -
Gonçalo Oliveira Benfica Active 114 / 124 40% 5 28.05.2027 -
Rivaldo Mkhize Black Aces Active 87 / 99 40% 3 28.05.2027 -
Simone Kosijer Triestina Active 93 / 98 40% 2 28.05.2027 -
Bongani Jali Free State Stars Active 95 / 93 40% 8 27.05.2027 -
Maldini Kacurri Grimsby Town Active 98 / 100 40% 1 27.05.2027 -
Konta Ismaily Active 84 / 98 40% 2 26.05.2027 -
Ivan Giraldo Valencia Active 116 / 134 40% 4 24.05.2027 -
Josh King Newcastle United Active 131 / 141 40% 3 24.05.2027 -
Caleb Yirenkyi Coventry City Active 126 / 136 40% 5 21.05.2027 -
Eliás Montiel Borussia Dortmund Active 131 / 126 40% 2 21.05.2027 -
Leandro Martins Benfica Active 87 / 107 40% 2 20.05.2027 -
Riley Owen Stevenage Active 99 / 98 40% 3 20.05.2027 -
Bence Dárdai VfL Wolfsburg Active 131 / 134 40% 1 20.05.2027 -
Enzo Koffi Olympique de Marseille Active 116 / 107 40% 1 07.05.2027 -
Chari Giwa US Bougouni Active 86 / 73 40% 2 30.04.2027 -
Matvey Kislyak CSKA Moscow Active 139 / 141 40% 1 28.04.2027 -
Moncef Zekri Sporting CP Active 96 / 97 40% 3 26.04.2027 -
Jenson Jones Walsall Active 83 / 96 40% 2 23.04.2027 -
Mattia Puzone Siracusa Active 102 / 101 40% 1 23.04.2027 -
Pietro Reggiori Pro Patria Active 88 / 92 40% 2 22.04.2027 -
Emirhan Başyiğit Sivasspor Active 102 / 108 40% 2 19.04.2027 -
David Ozoh Derby County Active 114 / 132 40% 1 19.04.2027 -
Edwin Asamoah Berekum Chelsea Active 78 / 85 40% 3 16.04.2027 -
Tommaso Cecotti Carpi Active 97 / 107 40% 1 10.04.2027 -
Tomás Pérez Porto Active 130 / 127 40% 2 09.04.2027 -
James Dornelly Peterborough United Active 97 / 106 40% 2 06.04.2027 -
Kiani Inge Groningen Active 114 / 112 40% 1 06.04.2027 -
Ezra Mayers West Ham United Active 119 / 119 40% 1 06.04.2027 -
Francis Gomez Cardiff City Active 109 / 118 40% 1 30.03.2027 -
Pape Diong Westerlo Active 101 / 117 40% 2 29.03.2027 -
Cheveyo Tsawa Club Brugge Active 128 / 133 40% 2 27.03.2027 -
Afonso Assis Moreirense Active 103 / 123 40% 2 24.03.2027 -
Henrique Silva Santa Clara Active 105 / 123 40% 3 23.03.2027 -
Vasco Santos Oliveirense Active 87 / 88 40% 1 16.03.2027 -
Joaquin Seys Club Brugge Active 117 / 137 40% 2 14.03.2027 -
Germán Barbas Burgos Active 112 / 120 40% 1 10.03.2027 -
Axel Frugone Athletic Bilbao Active 108 / 129 40% 1 08.03.2027 -
Cemran Dansin Orlando Pirates Active 116 / 114 40% 1 05.03.2027 -
João Teixeira Porto Active 113 / 111 40% 1 03.03.2027 -
Breno Bidon Corinthians Active 128 / 133 40% 1 06.02.2027 -
Milan Roganović Racing Genk Active 110 / 119 40% 1 02.02.2027 -
Olivier Leroux Mouscron Active 89 / 112 40% 1 01.02.2027 -
Vitor Hugo Atlético Mineiro Active 122 / 128 69% 1 28.12.2026 Approve
Konstantin Tyukavin Osasuna Active 132 / 133 66% 1 01.12.2026 Approve
Vitor Hugo Lusitânia Lourosa Active 101 / 99 40% 6 29.11.2026 -
Héctor Holguín Morelia Active 103 / 111 40% 2 29.11.2026 -
Justo Giani Umraniyespor Active 124 / 116 40% 1 29.11.2026 -
Ignacio de Arruabarrena Arouca Active 139 / 127 40% 6 27.11.2026 -
Arijanet Murić Sassuolo Active 142 / 127 40% 1 27.11.2026 -
Francisco Meixedo Feirense Active 121 / 120 40% 4 26.11.2026 -
Filip Marschall Stevenage Active 113 / 108 40% 1 26.11.2026 -
Juan Soriano Académico de Viseu Active 130 / 134 40% 4 25.11.2026 -
Viktor Johansson Stoke City Active 131 / 142 40% 2 24.11.2026 -
Vladan Kovačević Norwich City Active 125 / 122 40% 1 24.11.2026 -
Lazar Carević Famalicao Active 131 / 135 40% 4 23.11.2026 -
Patrick Sequeira Casa Pia Active 126 / 135 40% 4 23.11.2026 -
Juan Diego Castillo Vitoria Guimaraes Active 128 / 120 40% 6 22.11.2026 -
Fran Vieites Walsall Active 124 / 121 40% 2 22.11.2026 -
Gabriel Batista Botafogo Active 120 / 124 40% 2 22.11.2026 -
Antony Alonso Deportivo Riestra Active 115 / 124 40% 1 21.11.2026 -
Jacob Widell Zetterström Derby County Active 135 / 130 40% 1 21.11.2026 -
Antonio Gomis Vizela Active 116 / 122 40% 3 20.11.2026 -
Negueba Mirassol Active 121 / 129 40% 2 19.11.2026 -
Luccas Paraízo Leixões Active 99 / 112 40% 1 19.11.2026 -
Cezary Miszta Rio Ave Active 134 / 125 40% 4 18.11.2026 -
Gonçalo Tabuaço Maritimo Active 101 / 120 40% 2 16.11.2026 -
Andreas Jungdal Westerlo Active 122 / 120 40% 1 16.11.2026 -
Manuel Roffo Hajduk Split Active 142 / 116 40% 6 15.11.2026 -
Grégoire Coudert Burnley Active 127 / 125 40% 3 15.11.2026 -
Fabijan Buntić Farense Active 113 / 113 40% 2 14.11.2026 -
Anthony Patterson Wrexham Active 124 / 132 40% 2 14.11.2026 -
Raul Steffens AVS Active 120 / 104 40% 2 14.11.2026 -
Dean Henderson Crystal Palace Active 156 / 147 40% 4 13.11.2026 -
Roberto Fernández Braga Active 136 / 152 40% 3 12.11.2026 -
João Gonçalves Oliveirense Active 119 / 104 40% 2 12.11.2026 -
Zé Leite Moreirense Active 127 / 119 40% 1 12.11.2026 -
Marezi Portsmouth Active 128 / 121 40% 1 12.11.2026 -
Nathan Trott Cardiff City Active 113 / 113 40% 1 07.11.2026 -
Hugo Cuypers Monterrey Active 129 / 133 40% 3 06.11.2026 -
Caoimhin Kelleher Brentford Active 141 / 145 40% 4 06.11.2026 -
Matheus Mendes Alverca Active 126 / 113 40% 6 04.11.2026 -
Gabriel Brazão Santos Active 136 / 128 40% 8 04.11.2026 -
Erik Botheim Viking Active 134 / 137 40% 1 03.11.2026 -
Sota Kitano Red Bull Salzburg Active 117 / 133 40% 1 03.11.2026 -
Pau Víctor Braga Active 133 / 143 40% 1 03.11.2026 -
Henrique Araújo Casa Pia Active 116 / 128 40% 1 02.11.2026 -
João Valido Chaves Active 121 / 113 40% 4 31.10.2026 -
Pascal Loretz Luzern Active 136 / 119 40% 1 31.10.2026 -
Thiago Couto São Paulo Active 114 / 113 40% 1 31.10.2026 -
Radek Vítek Middlesbrough Active 133 / 134 40% 2 29.10.2026 -
James Trafford Leeds United Active 140 / 134 40% 3 28.10.2026 -
Nahuel Pezzini Arsenal Active 104 / 114 40% 2 25.10.2026 -
Ennio van der Gouw Rio Ave Active 121 / 106 40% 3 24.10.2026 -
André Clovis Académico de Viseu Active 116 / 111 40% 1 24.10.2026 -
Arthur Cabral Botafogo Active 125 / 128 40% 1 24.10.2026 Needs More Info
Robin Roefs Sunderland Active 135 / 154 40% 1 22.10.2026 -
Hwang Hee-Chan Wolverhampton Active 128 / 139 40% 1 22.10.2026 -
Juan Muñoz Leiria Active 130 / 110 40% 1 21.10.2026 -
Alejandro Piedrahita Deportivo Pereira Active 126 / 129 40% 1 21.10.2026 -
Drake Callender Minnesota United FC Active 125 / 125 40% 2 18.10.2026 -
Adriel Torreense Active 105 / 106 40% 2 17.10.2026 -
Matías Tagliamonte Racing Club Active 116 / 116 40% 1 17.10.2026 -
Gonzalo Crettaz NEC Active 119 / 135 40% 1 16.10.2026 -
Zian Flemming Ipswich Town Active 123 / 142 40% 2 15.10.2026 -
Esteban Glellel Quilmes Active 109 / 121 40% 2 15.10.2026 -
Oli McBurnie Hull City Active 141 / 137 40% 1 15.10.2026 -
Sébastien Cibois Portimonense Active 120 / 118 40% 3 13.10.2026 -
Lucas Arcanjo Vitória Active 132 / 133 40% 5 12.10.2026 -
Alexandro Bernabei Internacional Active 140 / 133 40% 1 12.10.2026 -
Luciano Juba Bahia Active 140 / 130 40% 1 12.10.2026 -
Hugo Souza Corinthians Active 136 / 127 40% 3 11.10.2026 -
Yehvann Diouf OGC Nice Active 131 / 138 40% 1 11.10.2026 -
Kyle Wootton Stockport County Active 128 / 110 40% 1 09.10.2026 -
Bénie Traoré New York City Active 120 / 131 40% 1 09.10.2026 -
Yanis Begraoui Estoril Praia Active 124 / 124 40% 3 07.10.2026 -
José Manuel López Palmeiras Active 140 / 137 40% 1 07.10.2026 -
Julian Herrera Cortulua Active 126 / 111 40% 1 07.10.2026 -
Emiliano González Almagro Active 112 / 115 40% 2 30.09.2026 -
Tiago Silva Alverca Active 104 / 121 40% 1 30.09.2026 -
Pedro Rocha Juventude Active 119 / 116 40% 1 30.09.2026 -
Talles Magno New York City Active 127 / 132 40% 1 29.09.2026 -
Ignacio Ramírez Newell's Old Boys Active 123 / 128 40% 1 27.09.2026 -
Claudio Spinelli Vasco da Gama Active 122 / 135 40% 1 27.09.2026 -
Patrick Schulte Columbus Crew Active 128 / 129 40% 1 27.09.2026 -
Bernardo Fontes Braga Active 133 / 131 40% 3 25.09.2026 -
Timo Werner San Jose Earthquakes Active 135 / 123 40% 1 22.09.2026 -
Dawda Camara Alverca Active 108 / 126 40% 1 22.09.2026 -
Jorge Aguirre Torreense Active 98 / 109 40% 1 20.09.2026 -
Vinícius Lopes Santa Clara Active 131 / 128 40% 1 20.09.2026 -
Mauro Silveira Junior Active 124 / 124 40% 1 19.09.2026 -
Dudu Estrela da Amadora Active 116 / 101 40% 1 16.09.2026 -
James Pantemis Portland Timbers Active 119 / 106 40% 2 15.09.2026 -
Williams Mabunda Ajax Cape Town Active 117 / 111 40% 1 13.09.2026 -
Carlos Miguel Palmeiras Active 123 / 135 40% 1 12.09.2026 -
Sipho Chaine Orlando Pirates Active 106 / 112 40% 1 11.09.2026 -
Lucão Gil Vicente Active 118 / 119 40% 1 09.09.2026 -
Dayne St. Clair Inter Miami CF Active 125 / 118 40% 3 07.09.2026 -
Ruly Padova Active 90 / 100 40% 1 06.09.2026 -
Josh Sargent Toronto FC Active 133 / 133 40% 2 05.09.2026 -
Martín Ojeda Orlando City Active 129 / 140 40% 1 05.09.2026 -
Facundo Batista Penarol Active 118 / 117 40% 1 04.09.2026 -
Matías Vargas Gimnasia y Esgrima Active 129 / 135 40% 1 02.09.2026 -
Ricardo Horta Braga Active 140 / 137 40% 1 02.09.2026 -
Morgan Guilavogui Real Salt Lake Active 119 / 118 40% 1 02.09.2026 -
Nahuel Galardi Maipú Active 106 / 100 40% 1 01.09.2026 -
Sorriso Famalicao Active 127 / 127 40% 1 27.08.2026 -
Tomás Molina Argentinos Juniors Active 132 / 119 40% 1 27.08.2026 -
Héctor Hernández Gil Vicente Active 121 / 122 40% 1 26.08.2026 -
Petar Musa FC Dallas Active 132 / 137 40% 1 24.08.2026 -
Pep Biel Charlotte Football Club Active 132 / 133 40% 1 24.08.2026 -
Alexis Cuello San Lorenzo Active 124 / 117 40% 1 21.08.2026 -
Fran Navarro Braga Active 120 / 123 40% 1 21.08.2026 -
Gustavo Silva Vitoria Guimaraes Active 113 / 120 40% 1 15.08.2026 -
Yuri Tanque Criciuma Active 114 / 123 40% 1 15.08.2026 -
Alfonso Pastor Maritimo Active 110 / 119 40% 1 11.08.2026 -
Christian Joel Sánchez Leiria Active 94 / 98 40% 1 09.08.2026 -
Luis Suárez Sporting CP Active 157 / 159 40% 2 08.08.2026 -
Demir Ege Tıknaz Braga Active 128 / 113 40% 1 08.08.2026 -
Yeimar Mosquera Vitoria Guimaraes Active 110 / 121 40% 1 08.08.2026 -
Carlos Moreno Pachuca Active 131 / 128 40% 1 07.08.2026 -
Samuel Soares Benfica Active 131 / 118 40% 1 07.08.2026 -
Rodrigo Castillo Fluminense Active 133 / 132 40% 2 06.08.2026 -
Sikou Niakaté Braga Active 147 / 127 40% 1 03.08.2026 -
Bruno Ramos Sporting CP Active 114 / 116 40% 1 03.08.2026 -
Jonathan Dubasin Osasuna Active 128 / 130 40% 1 01.08.2026 -